Time;durP1;ratioP1;P1;durP2;ratioP2;P2;SDS_P1;SDS_P2;PMS_P1;PMS_P2;Temp;Humidity;BMP_temperature;BMP_pressure;BME280_temperature;BME280_humidity;BME280_pressure;Samples;Min_cycle;Max_cycle;Signal;HPM_P1;HPM_P2
2021/06/19 00:02:07;;;;;;;;;;;19.20;51.90;;;;;;4932639;28;75469;-65
2021/06/19 00:04:33;;;;;;;;;;;19.10;52.30;;;;;;4932649;28;74394;-66
2021/06/19 00:06:59;;;;;;;;;;;19.10;52.60;;;;;;4931183;28;76238;-64
2021/06/19 00:09:25;;;;;;;;;;;19.00;52.70;;;;;;4931085;28;76007;-64
2021/06/19 00:11:50;;;;;;;;;;;19.00;52.90;;;;;;4930766;28;78519;-73
2021/06/19 00:14:16;;;;;;;;;;;19.10;52.90;;;;;;4932174;28;75548;-71
2021/06/19 00:16:42;;;;;;;;;;;19.20;52.80;;;;;;4932317;28;75175;-73
2021/06/19 00:19:07;;;;;;;;;;;19.20;52.80;;;;;;4930930;28;75399;-72
2021/06/19 00:21:33;;;;;;;;;;;19.30;52.80;;;;;;4932486;28;74982;-71
2021/06/19 00:23:58;;;;;;;;;;;19.30;52.70;;;;;;4932028;28;75133;-68
2021/06/19 00:26:24;;;;;;;;;;;19.30;52.80;;;;;;4930836;28;76326;-65
2021/06/19 00:28:50;;;;;;;;;;;19.20;52.90;;;;;;4932301;28;74471;-66
2021/06/19 00:31:16;;;;;;;;;;;19.20;53.00;;;;;;4932323;28;75101;-64
2021/06/19 00:33:41;;;;;;;;;;;19.20;53.00;;;;;;4932068;28;74950;-66
2021/06/19 00:36:07;;;;;;;;;;;19.10;52.90;;;;;;4932159;28;74953;-71
2021/06/19 00:38:33;;;;;;;;;;;19.10;53.20;;;;;;4930694;28;77466;-64
2021/06/19 00:40:58;;;;;;;;;;;19.00;53.60;;;;;;4930532;28;75840;-66
2021/06/19 00:43:24;;;;;;;;;;;18.90;53.70;;;;;;4930556;28;77976;-63
2021/06/19 00:45:49;;;;;;;;;;;18.90;54.00;;;;;;4932227;28;74432;-63
2021/06/19 00:48:15;;;;;;;;;;;18.80;54.00;;;;;;4932124;28;75289;-62
2021/06/19 00:50:41;;;;;;;;;;;18.80;54.30;;;;;;4932008;28;75200;-65
2021/06/19 00:53:07;;;;;;;;;;;18.70;54.40;;;;;;4932340;28;74523;-66
2021/06/19 00:55:32;;;;;;;;;;;18.60;54.60;;;;;;4932611;28;75370;-65
2021/06/19 00:58:00;;;;;;;;;;;18.60;54.60;;;;;;4930068;28;78083;-64
2021/06/19 01:00:26;;;;;;;;;;;18.70;54.80;;;;;;4932201;28;75703;-69
2021/06/19 01:02:55;;;;;;;;;;;18.70;54.70;;;;;;4930034;28;75429;-68
2021/06/19 01:05:22;;;;;;;;;;;18.70;54.60;;;;;;4931653;28;75189;-70
2021/06/19 01:07:47;;;;;;;;;;;18.70;54.80;;;;;;4931503;28;75070;-65
2021/06/19 01:10:13;;;;;;;;;;;18.70;54.70;;;;;;4930453;28;76161;-64
2021/06/19 01:12:40;;;;;;;;;;;18.70;54.70;;;;;;4932160;28;74485;-66
2021/06/19 01:15:06;;;;;;;;;;;18.70;54.80;;;;;;4930106;28;76690;-64
2021/06/19 01:17:31;;;;;;;;;;;18.60;54.90;;;;;;4929218;28;75547;-69
2021/06/19 01:20:08;;;;;;;;;;;18.50;55.10;;;;;;4931415;28;74638;-70
2021/06/19 01:22:34;;;;;;;;;;;18.50;55.00;;;;;;4931383;28;75329;-70
2021/06/19 01:25:04;;;;;;;;;;;18.60;55.10;;;;;;4931829;28;74532;-72
2021/06/19 01:27:31;;;;;;;;;;;18.50;55.20;;;;;;4929935;28;78237;-71
2021/06/19 01:29:57;;;;;;;;;;;18.50;55.70;;;;;;4931551;28;75265;-68
2021/06/19 01:32:26;;;;;;;;;;;18.50;56.00;;;;;;4931147;28;75086;-67
2021/06/19 01:34:52;;;;;;;;;;;18.40;56.30;;;;;;4931301;28;77316;-64
2021/06/19 01:37:18;;;;;;;;;;;18.30;56.70;;;;;;4962149;28;78339;-71
2021/06/19 01:39:43;;;;;;;;;;;18.20;56.80;;;;;;4931437;28;74500;-65
2021/06/19 01:42:09;;;;;;;;;;;18.20;57.00;;;;;;4931248;28;75501;-64
2021/06/19 01:44:35;;;;;;;;;;;18.20;57.20;;;;;;4931285;28;74589;-64
2021/06/19 01:47:00;;;;;;;;;;;18.20;57.50;;;;;;4929758;28;75178;-70
2021/06/19 01:49:36;;;;;;;;;;;18.10;57.50;;;;;;4929577;28;74691;-67
2021/06/19 01:52:03;;;;;;;;;;;18.20;57.60;;;;;;4931245;28;75165;-72
2021/06/19 01:54:37;;;;;;;;;;;18.20;57.50;;;;;;4961939;28;77966;-70
2021/06/19 01:57:07;;;;;;;;;;;18.20;57.40;;;;;;4929755;28;76455;-71
2021/06/19 01:59:33;;;;;;;;;;;18.20;57.40;;;;;;4931021;28;75216;-72
2021/06/19 02:01:59;;;;;;;;;;;18.10;57.70;;;;;;4930998;28;75113;-71
2021/06/19 02:04:25;;;;;;;;;;;18.00;57.80;;;;;;4929517;28;77283;-69
2021/06/19 02:06:51;;;;;;;;;;;18.00;57.80;;;;;;4930859;28;75241;-69
2021/06/19 02:09:16;;;;;;;;;;;17.90;57.50;;;;;;4929281;28;76281;-72
2021/06/19 02:11:42;;;;;;;;;;;17.90;57.70;;;;;;4930485;28;75328;-65
2021/06/19 02:14:08;;;;;;;;;;;17.90;57.70;;;;;;4930404;28;74701;-67
2021/06/19 02:16:33;;;;;;;;;;;17.90;58.00;;;;;;4929375;28;77303;-67
2021/06/19 02:18:59;;;;;;;;;;;17.90;58.00;;;;;;4930593;28;75165;-70
2021/06/19 02:21:24;;;;;;;;;;;17.90;58.10;;;;;;4929844;28;77905;-71
2021/06/19 02:23:50;;;;;;;;;;;17.90;58.00;;;;;;4928810;28;76981;-72
2021/06/19 02:26:16;;;;;;;;;;;17.90;58.10;;;;;;4930603;28;75396;-73
2021/06/19 02:28:41;;;;;;;;;;;17.90;58.20;;;;;;4963088;28;76562;-73
2021/06/19 02:31:07;;;;;;;;;;;17.90;58.20;;;;;;4932173;28;77904;-73
2021/06/19 02:33:33;;;;;;;;;;;17.90;58.50;;;;;;4932756;28;78214;-74
2021/06/19 02:35:58;;;;;;;;;;;18.00;58.40;;;;;;4931869;28;75998;-73
2021/06/19 02:38:24;;;;;;;;;;;18.00;58.40;;;;;;4931917;28;78218;-74
2021/06/19 02:40:51;;;;;;;;;;;17.90;58.30;;;;;;4933248;28;75195;-74
2021/06/19 02:43:17;;;;;;;;;;;18.00;58.40;;;;;;4933852;28;74393;-74
2021/06/19 02:45:43;;;;;;;;;;;17.90;58.50;;;;;;4933793;28;74482;-71
2021/06/19 02:48:08;;;;;;;;;;;18.00;58.70;;;;;;4933653;28;75699;-74
2021/06/19 02:50:35;;;;;;;;;;;17.90;58.70;;;;;;4932422;28;75490;-74
2021/06/19 02:53:02;;;;;;;;;;;17.90;58.90;;;;;;4931436;28;77492;-73
2021/06/19 02:55:29;;;;;;;;;;;17.90;59.10;;;;;;4932103;28;74568;-74
2021/06/19 02:57:55;;;;;;;;;;;17.90;59.20;;;;;;4933040;28;77378;-74
2021/06/19 03:00:21;;;;;;;;;;;18.00;59.30;;;;;;4933326;28;74883;-70
2021/06/19 03:02:47;;;;;;;;;;;18.00;59.30;;;;;;4931756;28;75773;-70
2021/06/19 03:05:14;;;;;;;;;;;17.90;59.40;;;;;;4931981;28;75528;-67
2021/06/19 03:07:40;;;;;;;;;;;17.90;59.70;;;;;;4931655;28;75338;-68
2021/06/19 03:10:07;;;;;;;;;;;17.90;59.70;;;;;;4933394;28;74567;-71
2021/06/19 03:12:33;;;;;;;;;;;18.00;59.70;;;;;;4933755;28;74442;-72
2021/06/19 03:14:58;;;;;;;;;;;18.00;59.90;;;;;;4931305;28;74708;-73
2021/06/19 03:17:24;;;;;;;;;;;18.00;59.90;;;;;;4931592;28;77200;-72
2021/06/19 03:19:50;;;;;;;;;;;18.00;60.00;;;;;;4933169;28;75394;-69
2021/06/19 03:22:15;;;;;;;;;;;18.00;60.00;;;;;;4931471;28;76972;-73
2021/06/19 03:24:42;;;;;;;;;;;18.00;59.90;;;;;;4931641;28;77135;-72
2021/06/19 03:27:08;;;;;;;;;;;18.00;60.10;;;;;;4931430;28;77915;-71
2021/06/19 03:29:34;;;;;;;;;;;18.00;60.00;;;;;;4931550;28;78274;-74
2021/06/19 03:32:00;;;;;;;;;;;17.90;60.20;;;;;;4933019;28;75344;-74
2021/06/19 03:34:25;;;;;;;;;;;17.90;60.40;;;;;;4931412;28;75307;-69
2021/06/19 03:36:58;;;;;;;;;;;17.90;60.60;;;;;;4931335;28;74415;-70
2021/06/19 03:39:24;;;;;;;;;;;17.90;60.50;;;;;;4930405;28;77611;-72
2021/06/19 03:41:49;;;;;;;;;;;17.90;60.60;;;;;;4931106;28;76691;-72
2021/06/19 03:44:15;;;;;;;;;;;17.90;60.60;;;;;;4932727;28;75749;-72
2021/06/19 03:46:41;;;;;;;;;;;17.90;60.60;;;;;;4933129;28;74470;-72
2021/06/19 03:49:07;;;;;;;;;;;18.00;60.60;;;;;;4931190;28;75272;-66
2021/06/19 03:51:32;;;;;;;;;;;17.90;60.60;;;;;;4932703;28;75732;-67
2021/06/19 03:53:58;;;;;;;;;;;17.90;60.80;;;;;;4932737;28;75640;-67
2021/06/19 03:56:24;;;;;;;;;;;17.90;61.00;;;;;;4932525;28;75466;-65
2021/06/19 03:58:49;;;;;;;;;;;17.80;61.10;;;;;;4963846;28;75903;-74
2021/06/19 04:01:15;;;;;;;;;;;17.70;61.10;;;;;;4932485;28;75187;-72
2021/06/19 04:03:41;;;;;;;;;;;17.70;61.20;;;;;;4932758;28;75003;-66
2021/06/19 04:06:06;;;;;;;;;;;17.60;61.30;;;;;;4931015;28;75224;-70
2021/06/19 04:08:32;;;;;;;;;;;17.60;61.30;;;;;;4931232;28;77299;-68
2021/06/19 04:10:57;;;;;;;;;;;17.50;61.60;;;;;;4931273;28;77289;-72
2021/06/19 04:13:23;;;;;;;;;;;17.50;61.90;;;;;;4932250;28;75700;-67
2021/06/19 04:15:49;;;;;;;;;;;17.50;62.00;;;;;;4931419;28;74659;-70
2021/06/19 04:18:14;;;;;;;;;;;17.50;62.10;;;;;;4932544;28;75454;-71
2021/06/19 04:20:40;;;;;;;;;;;17.50;62.10;;;;;;4932513;28;75142;-71
2021/06/19 04:23:06;;;;;;;;;;;17.50;62.00;;;;;;4932272;28;75113;-72
2021/06/19 04:25:31;;;;;;;;;;;17.40;62.20;;;;;;4963311;28;74754;-71
2021/06/19 04:27:58;;;;;;;;;;;17.40;62.30;;;;;;4933099;28;74462;-70
2021/06/19 04:30:24;;;;;;;;;;;17.30;62.30;;;;;;4931862;28;75229;-73
2021/06/19 04:32:50;;;;;;;;;;;17.30;62.70;;;;;;4932462;28;74371;-73
2021/06/19 04:35:16;;;;;;;;;;;17.30;62.80;;;;;;4930559;28;77470;-72
2021/06/19 04:37:42;;;;;;;;;;;17.30;62.80;;;;;;4931979;28;75749;-73
2021/06/19 04:42:41;;;;;;;;;;;17.20;62.70;;;;;;4931640;28;75093;-70
2021/06/19 04:45:08;;;;;;;;;;;17.20;62.90;;;;;;4931289;28;77872;-70
2021/06/19 04:47:36;;;;;;;;;;;17.10;63.10;;;;;;4931885;28;74588;-67
2021/06/19 04:50:03;;;;;;;;;;;17.10;63.20;;;;;;4932721;28;74503;-70
2021/06/19 04:52:33;;;;;;;;;;;17.00;63.40;;;;;;4931092;28;75706;-64
2021/06/19 04:54:59;;;;;;;;;;;16.90;63.50;;;;;;4930363;28;76239;-63
2021/06/19 04:57:25;;;;;;;;;;;16.90;63.70;;;;;;4930359;28;75777;-62
2021/06/19 04:59:51;;;;;;;;;;;16.90;63.90;;;;;;4931847;28;74576;-68
2021/06/19 05:02:16;;;;;;;;;;;16.90;64.10;;;;;;4931880;28;75702;-62
2021/06/19 05:04:43;;;;;;;;;;;16.80;64.20;;;;;;4931898;28;74619;-63
2021/06/19 05:07:08;;;;;;;;;;;16.80;64.20;;;;;;4932027;28;75087;-65
2021/06/19 05:09:34;;;;;;;;;;;16.90;64.40;;;;;;4931531;28;75752;-67
2021/06/19 05:12:00;;;;;;;;;;;16.90;64.30;;;;;;4929961;28;78127;-65
2021/06/19 05:14:25;;;;;;;;;;;16.90;64.30;;;;;;4931553;28;75115;-70
2021/06/19 05:16:51;;;;;;;;;;;16.90;64.30;;;;;;4931707;28;75226;-73
2021/06/19 05:19:19;;;;;;;;;;;17.00;64.30;;;;;;4931823;28;75126;-69
2021/06/19 05:21:44;;;;;;;;;;;17.00;64.20;;;;;;4931572;28;75712;-71
2021/06/19 05:24:11;;;;;;;;;;;17.00;64.20;;;;;;4962495;28;78020;-66
2021/06/19 05:26:37;;;;;;;;;;;16.90;64.20;;;;;;4931702;28;75395;-73
2021/06/19 05:29:03;;;;;;;;;;;16.90;64.50;;;;;;4933994;28;75200;-74
2021/06/19 05:31:29;;;;;;;;;;;16.90;64.80;;;;;;4950282;28;75176;-72
2021/06/19 05:33:54;;;;;;;;;;;16.90;64.80;;;;;;4950481;28;75485;-72
2021/06/19 05:36:20;;;;;;;;;;;16.90;64.90;;;;;;4949348;28;76268;-72
2021/06/19 05:38:46;;;;;;;;;;;17.00;64.80;;;;;;4949056;28;77933;-73
2021/06/19 05:41:11;;;;;;;;;;;16.90;64.80;;;;;;4935252;28;75529;-67
2021/06/19 05:43:37;;;;;;;;;;;17.00;64.60;;;;;;4929979;28;76356;-72
2021/06/19 05:46:02;;;;;;;;;;;17.00;64.60;;;;;;4931159;28;75019;-65
2021/06/19 05:48:28;;;;;;;;;;;17.10;64.70;;;;;;4929866;28;74603;-65
2021/06/19 05:50:54;;;;;;;;;;;17.20;64.50;;;;;;4946125;28;77013;-66
2021/06/19 05:53:19;;;;;;;;;;;17.30;64.30;;;;;;4950353;28;75855;-67
2021/06/19 05:55:45;;;;;;;;;;;17.20;64.10;;;;;;4950528;28;75118;-65
2021/06/19 05:58:11;;;;;;;;;;;17.20;64.20;;;;;;4951058;28;74554;-66
2021/06/19 06:00:37;;;;;;;;;;;17.30;64.30;;;;;;4950805;28;74438;-67
2021/06/19 06:03:03;;;;;;;;;;;17.40;64.20;;;;;;4949411;28;75400;-67
2021/06/19 06:05:29;;;;;;;;;;;17.40;64.30;;;;;;4968277;28;77039;-63
2021/06/19 06:07:55;;;;;;;;;;;17.50;64.20;;;;;;4953036;28;74945;-62
2021/06/19 06:10:21;;;;;;;;;;;17.60;63.90;;;;;;4948077;28;76785;-68
2021/06/19 06:12:46;;;;;;;;;;;17.70;63.80;;;;;;4938043;28;75213;-63
2021/06/19 06:15:12;;;;;;;;;;;17.70;63.70;;;;;;4933493;28;75042;-63
2021/06/19 06:17:38;;;;;;;;;;;17.80;63.40;;;;;;4932465;28;75956;-63
2021/06/19 06:20:05;;;;;;;;;;;17.90;63.10;;;;;;4933257;28;75169;-63
2021/06/19 06:22:30;;;;;;;;;;;17.90;62.90;;;;;;4933933;28;75852;-63
2021/06/19 06:24:56;;;;;;;;;;;17.90;63.00;;;;;;4933623;28;75517;-62
2021/06/19 06:27:22;;;;;;;;;;;17.90;63.00;;;;;;4933711;28;75512;-61
2021/06/19 06:29:47;;;;;;;;;;;18.00;62.70;;;;;;4933729;28;74397;-65
2021/06/19 06:32:13;;;;;;;;;;;18.20;62.40;;;;;;4932319;28;77790;-64
2021/06/19 06:34:38;;;;;;;;;;;18.30;61.80;;;;;;4932150;28;76120;-67
2021/06/19 06:37:07;;;;;;;;;;;18.40;61.60;;;;;;4932136;28;77270;-66
2021/06/19 06:39:32;;;;;;;;;;;18.60;61.50;;;;;;4931919;28;75394;-66
2021/06/19 06:42:00;;;;;;;;;;;18.70;61.10;;;;;;4931745;28;77400;-66
2021/06/19 06:44:26;;;;;;;;;;;18.90;60.70;;;;;;4933900;28;74419;-65
2021/06/19 06:46:51;;;;;;;;;;;19.10;60.10;;;;;;4964562;28;76364;-66
2021/06/19 06:49:17;;;;;;;;;;;19.30;59.90;;;;;;4932133;28;77505;-67
2021/06/19 06:51:43;;;;;;;;;;;19.40;59.40;;;;;;4933489;28;75102;-66
2021/06/19 06:54:08;;;;;;;;;;;19.50;58.40;;;;;;4933375;28;75198;-65
2021/06/19 06:56:34;;;;;;;;;;;19.50;57.00;;;;;;4933469;28;75339;-70
2021/06/19 06:59:00;;;;;;;;;;;19.50;56.80;;;;;;4964841;28;77639;-70
2021/06/19 07:01:26;;;;;;;;;;;19.50;56.60;;;;;;4933405;28;75755;-70
2021/06/19 07:03:55;;;;;;;;;;;19.60;56.60;;;;;;4933376;28;75379;-68
2021/06/19 07:06:21;;;;;;;;;;;19.80;56.40;;;;;;4931525;28;77667;-69
2021/06/19 07:08:47;;;;;;;;;;;19.80;56.10;;;;;;4931600;28;74727;-70
2021/06/19 07:11:13;;;;;;;;;;;19.90;56.00;;;;;;4931672;28;77211;-67
2021/06/19 07:13:38;;;;;;;;;;;20.10;55.60;;;;;;4933292;28;74695;-69
2021/06/19 07:16:04;;;;;;;;;;;20.20;55.60;;;;;;4932093;28;75569;-68
2021/06/19 07:18:30;;;;;;;;;;;20.30;54.70;;;;;;4933802;28;74474;-70
2021/06/19 07:20:55;;;;;;;;;;;20.30;53.90;;;;;;4931628;28;76603;-70
2021/06/19 07:23:22;;;;;;;;;;;20.40;53.30;;;;;;4930949;28;74722;-68
2021/06/19 07:25:48;;;;;;;;;;;20.40;52.60;;;;;;4933148;28;75834;-68
2021/06/19 07:28:14;;;;;;;;;;;20.30;52.60;;;;;;4963968;28;78160;-68
2021/06/19 07:30:40;;;;;;;;;;;20.30;53.10;;;;;;4931852;28;74892;-67
2021/06/19 07:33:05;;;;;;;;;;;20.30;52.70;;;;;;4932861;28;75055;-68
2021/06/19 07:35:31;;;;;;;;;;;20.20;52.40;;;;;;4933060;28;75149;-69
2021/06/19 07:37:57;;;;;;;;;;;20.30;53.30;;;;;;4932726;28;75197;-69
2021/06/19 07:40:23;;;;;;;;;;;20.40;51.70;;;;;;4931381;28;76101;-70
2021/06/19 07:42:48;;;;;;;;;;;20.50;52.40;;;;;;4931486;28;77971;-69
2021/06/19 07:45:14;;;;;;;;;;;20.60;51.10;;;;;;4932852;28;75173;-70
2021/06/19 07:47:40;;;;;;;;;;;20.70;50.10;;;;;;4931510;28;75940;-68
2021/06/19 07:50:06;;;;;;;;;;;20.80;49.40;;;;;;4931379;28;75425;-70
2021/06/19 07:52:31;;;;;;;;;;;20.90;50.50;;;;;;4932760;28;75586;-68
2021/06/19 07:54:57;;;;;;;;;;;20.90;48.60;;;;;;4931117;28;75199;-69
2021/06/19 07:57:23;;;;;;;;;;;20.90;50.30;;;;;;4931279;28;76733;-68
2021/06/19 07:59:48;;;;;;;;;;;21.00;50.70;;;;;;4932721;28;75524;-70
2021/06/19 08:02:14;;;;;;;;;;;21.10;49.70;;;;;;4930913;28;77021;-70
2021/06/19 08:04:40;;;;;;;;;;;21.10;49.70;;;;;;4931250;28;76496;-69
2021/06/19 08:07:05;;;;;;;;;;;21.20;50.20;;;;;;4933088;28;74479;-69
2021/06/19 08:09:31;;;;;;;;;;;21.30;48.00;;;;;;4932381;28;75123;-67
2021/06/19 08:11:58;;;;;;;;;;;21.30;49.40;;;;;;4932531;28;75016;-69
2021/06/19 08:14:23;;;;;;;;;;;21.30;49.50;;;;;;4931831;28;75198;-69
2021/06/19 08:16:53;;;;;;;;;;;21.40;47.90;;;;;;4930941;28;76349;-70
2021/06/19 08:19:19;;;;;;;;;;;21.40;48.70;;;;;;4930486;28;76131;-70
2021/06/19 08:21:45;;;;;;;;;;;21.30;48.90;;;;;;4932290;28;75211;-71
2021/06/19 08:24:11;;;;;;;;;;;21.30;48.60;;;;;;4930693;28;77409;-70
2021/06/19 08:26:37;;;;;;;;;;;21.30;48.60;;;;;;4932316;28;74485;-69
2021/06/19 08:29:05;;;;;;;;;;;21.30;49.10;;;;;;4932126;28;74436;-69
2021/06/19 08:31:37;;;;;;;;;;;21.40;48.50;;;;;;4931448;28;75157;-70
2021/06/19 08:34:03;;;;;;;;;;;21.50;48.80;;;;;;4929642;28;75122;-69
2021/06/19 08:36:29;;;;;;;;;;;21.60;48.50;;;;;;4926928;28;77033;-66
2021/06/19 08:38:55;;;;;;;;;;;21.50;48.60;;;;;;4929706;28;74818;-68
2021/06/19 08:41:21;;;;;;;;;;;21.50;48.70;;;;;;4929014;28;75602;-67
2021/06/19 08:43:46;;;;;;;;;;;21.40;49.10;;;;;;4929976;28;74919;-68
2021/06/19 08:46:13;;;;;;;;;;;21.40;48.70;;;;;;4930050;28;75327;-67
2021/06/19 08:48:39;;;;;;;;;;;21.30;48.90;;;;;;4931472;28;75420;-68
2021/06/19 08:51:08;;;;;;;;;;;21.20;49.10;;;;;;4931491;28;75193;-67
2021/06/19 08:53:33;;;;;;;;;;;21.00;49.50;;;;;;4931482;28;75212;-68
2021/06/19 08:55:59;;;;;;;;;;;21.00;49.70;;;;;;4931706;28;74588;-67
2021/06/19 08:58:25;;;;;;;;;;;21.10;49.40;;;;;;4932122;28;75705;-70
2021/06/19 09:00:50;;;;;;;;;;;21.20;49.40;;;;;;4930383;28;75379;-67
2021/06/19 09:03:23;;;;;;;;;;;21.20;49.40;;;;;;4931876;28;74992;-66
2021/06/19 09:05:51;;;;;;;;;;;21.40;48.70;;;;;;4930321;28;74624;-67
2021/06/19 09:08:16;;;;;;;;;;;21.50;48.40;;;;;;4930540;28;75686;-69
2021/06/19 09:10:42;;;;;;;;;;;21.50;48.30;;;;;;4962839;28;74548;-70
2021/06/19 09:13:09;;;;;;;;;;;21.60;47.70;;;;;;4929976;28;77506;-70
2021/06/19 09:15:36;;;;;;;;;;;21.70;47.90;;;;;;4931761;28;75638;-70
2021/06/19 09:18:05;;;;;;;;;;;21.80;48.00;;;;;;4929777;28;75752;-69
2021/06/19 09:20:32;;;;;;;;;;;21.90;48.10;;;;;;4930184;28;75380;-69
2021/06/19 09:23:04;;;;;;;;;;;22.10;47.70;;;;;;4931753;28;75162;-67
2021/06/19 09:25:30;;;;;;;;;;;22.10;47.40;;;;;;4930293;28;76963;-67
2021/06/19 09:27:57;;;;;;;;;;;22.20;47.50;;;;;;4930139;28;75465;-68
2021/06/19 09:30:23;;;;;;;;;;;22.20;47.40;;;;;;4929952;28;76397;-70
2021/06/19 09:32:53;;;;;;;;;;;22.40;47.40;;;;;;4930065;28;75597;-70
2021/06/19 09:35:26;;;;;;;;;;;22.40;47.30;;;;;;4931385;28;74577;-68
2021/06/19 09:37:58;;;;;;;;;;;22.50;47.40;;;;;;4930877;28;74446;-68
2021/06/19 09:40:32;;;;;;;;;;;22.60;47.40;;;;;;4929638;28;75516;-68
2021/06/19 09:43:12;;;;;;;;;;;22.40;46.90;;;;;;4930215;28;77334;-68
2021/06/19 09:45:39;;;;;;;;;;;22.40;47.20;;;;;;4929819;28;74802;-65
2021/06/19 09:48:05;;;;;;;;;;;22.30;46.80;;;;;;4931415;28;75462;-67
2021/06/19 09:50:31;;;;;;;;;;;22.30;47.30;;;;;;4929802;28;75274;-64
2021/06/19 09:53:10;;;;;;;;;;;22.30;47.20;;;;;;4929692;28;78265;-65
2021/06/19 09:55:36;;;;;;;;;;;22.50;47.20;;;;;;4931027;28;75241;-66
2021/06/19 09:58:02;;;;;;;;;;;22.60;46.70;;;;;;4931100;28;75195;-66
2021/06/19 10:00:36;;;;;;;;;;;22.80;46.20;;;;;;4931274;28;74907;-67
2021/06/19 10:03:03;;;;;;;;;;;22.90;46.00;;;;;;4931169;28;75099;-65
2021/06/19 10:05:28;;;;;;;;;;;23.00;46.00;;;;;;4929934;28;77968;-69
2021/06/19 10:07:54;;;;;;;;;;;23.00;45.30;;;;;;4929737;28;77247;-70
2021/06/19 10:10:19;;;;;;;;;;;22.90;44.20;;;;;;4961691;28;76966;-66
2021/06/19 10:12:47;;;;;;;;;;;22.70;45.70;;;;;;4930817;28;75299;-66
2021/06/19 10:15:14;;;;;;;;;;;22.80;45.60;;;;;;4929200;28;75963;-68
2021/06/19 10:17:41;;;;;;;;;;;22.90;45.20;;;;;;4929363;28;76470;-67
2021/06/19 10:20:11;;;;;;;;;;;23.00;45.70;;;;;;4930600;28;75118;-64
2021/06/19 10:22:38;;;;;;;;;;;23.00;44.20;;;;;;4930770;28;75242;-65
2021/06/19 10:25:07;;;;;;;;;;;23.00;45.00;;;;;;4961369;28;75432;-68
2021/06/19 10:27:33;;;;;;;;;;;23.20;44.90;;;;;;4930518;28;75197;-67
2021/06/19 10:29:59;;;;;;;;;;;23.40;44.50;;;;;;4929005;28;76813;-65
2021/06/19 10:32:38;;;;;;;;;;;23.50;43.80;;;;;;4930536;28;75323;-65
2021/06/19 10:35:04;;;;;;;;;;;23.70;43.70;;;;;;4930772;28;75186;-64
2021/06/19 10:37:31;;;;;;;;;;;23.70;43.00;;;;;;4928998;28;78485;-65
2021/06/19 10:39:56;;;;;;;;;;;23.60;42.50;;;;;;4930582;28;75672;-66
2021/06/19 10:42:24;;;;;;;;;;;23.50;43.90;;;;;;4930219;28;75212;-65
2021/06/19 10:45:06;;;;;;;;;;;23.60;42.90;;;;;;4930102;28;75781;-68
2021/06/19 10:47:33;;;;;;;;;;;23.50;44.10;;;;;;4930362;28;75212;-66
2021/06/19 10:50:00;;;;;;;;;;;23.50;43.20;;;;;;4930817;28;75076;-69
2021/06/19 10:52:25;;;;;;;;;;;23.50;43.20;;;;;;4931833;28;77687;-65
2021/06/19 10:55:10;;;;;;;;;;;23.60;43.50;;;;;;4933005;28;74875;-64
2021/06/19 10:57:46;;;;;;;;;;;23.80;41.90;;;;;;4932035;28;75487;-65
2021/06/19 11:00:32;;;;;;;;;;;23.70;39.90;;;;;;4932908;28;74796;-66
2021/06/19 11:02:59;;;;;;;;;;;23.70;39.90;;;;;;4933352;28;74413;-65
2021/06/19 11:05:43;;;;;;;;;;;23.70;41.30;;;;;;4933339;28;75212;-66
2021/06/19 11:08:16;;;;;;;;;;;24.10;41.20;;;;;;4931685;28;75154;-67
2021/06/19 11:10:52;;;;;;;;;;;24.20;40.60;;;;;;4931494;28;78218;-67
2021/06/19 11:13:30;;;;;;;;;;;24.60;40.30;;;;;;4931250;28;77756;-66
2021/06/19 11:15:57;;;;;;;;;;;24.90;39.30;;;;;;4931355;28;75664;-69
2021/06/19 11:18:41;;;;;;;;;;;25.40;38.00;;;;;;4931271;28;76290;-67
2021/06/19 11:21:11;;;;;;;;;;;25.70;37.70;;;;;;4931775;28;78762;-69
2021/06/19 11:23:55;;;;;;;;;;;26.10;36.90;;;;;;4931161;28;75581;-68
2021/06/19 11:26:39;;;;;;;;;;;26.30;35.70;;;;;;4933025;28;75195;-67
2021/06/19 11:29:25;;;;;;;;;;;26.40;36.10;;;;;;4932628;28;75224;-67
2021/06/19 11:31:50;;;;;;;;;;;26.80;35.40;;;;;;4931237;28;76612;-66
2021/06/19 11:34:35;;;;;;;;;;;27.40;34.50;;;;;;4931203;28;76587;-67
2021/06/19 11:37:00;;;;;;;;;;;27.30;34.00;;;;;;4931194;28;75609;-68
2021/06/19 11:39:33;;;;;;;;;;;27.60;32.60;;;;;;4930995;28;78566;-69
2021/06/19 11:42:00;;;;;;;;;;;28.40;32.30;;;;;;4930864;28;76385;-67
2021/06/19 11:44:32;;;;;;;;;;;29.40;30.30;;;;;;4932730;28;75612;-68
2021/06/19 11:46:59;;;;;;;;;;;30.50;30.70;;;;;;4930987;28;77062;-72
2021/06/19 11:49:25;;;;;;;;;;;31.40;29.00;;;;;;4931584;28;78167;-66
2021/06/19 11:51:52;;;;;;;;;;;31.80;28.30;;;;;;4931119;28;77369;-69
2021/06/19 11:54:18;;;;;;;;;;;31.90;27.40;;;;;;4932721;28;75740;-68
2021/06/19 11:56:44;;;;;;;;;;;31.90;27.60;;;;;;4931251;28;75875;-68
2021/06/19 11:59:11;;;;;;;;;;;32.40;27.80;;;;;;4932532;28;74562;-67
2021/06/19 12:01:38;;;;;;;;;;;33.90;27.20;;;;;;4931930;28;75675;-67
2021/06/19 12:04:05;;;;;;;;;;;35.90;25.30;;;;;;4932355;28;74437;-67
2021/06/19 12:06:32;;;;;;;;;;;37.40;23.90;;;;;;4932532;28;75197;-69
2021/06/19 12:08:57;;;;;;;;;;;38.50;22.70;;;;;;4932245;28;74474;-69
2021/06/19 12:11:30;;;;;;;;;;;38.70;20.60;;;;;;4930772;28;77512;-69
2021/06/19 12:13:56;;;;;;;;;;;38.00;22.00;;;;;;4932388;28;75431;-67
2021/06/19 12:16:29;;;;;;;;;;;38.10;21.70;;;;;;4930534;28;75279;-69
2021/06/19 12:19:01;;;;;;;;;;;38.70;21.60;;;;;;4932351;28;75618;-65
2021/06/19 12:21:34;;;;;;;;;;;39.70;20.80;;;;;;4930401;28;76525;-69
2021/06/19 12:24:00;;;;;;;;;;;40.40;20.10;;;;;;4930429;28;76970;-70
2021/06/19 12:26:26;;;;;;;;;;;41.10;20.30;;;;;;4930478;28;75725;-68
2021/06/19 12:28:52;;;;;;;;;;;41.60;19.90;;;;;;4930985;28;78397;-69
2021/06/19 12:31:21;;;;;;;;;;;41.80;19.50;;;;;;4930741;28;75513;-69
2021/06/19 12:33:54;;;;;;;;;;;41.90;19.70;;;;;;4931944;28;75828;-67
2021/06/19 12:36:23;;;;;;;;;;;40.90;18.20;;;;;;4931129;28;76287;-68
2021/06/19 12:38:49;;;;;;;;;;;38.00;21.80;;;;;;4930159;28;75285;-67
2021/06/19 12:41:15;;;;;;;;;;;38.20;22.40;;;;;;4931357;28;74888;-64
2021/06/19 12:43:48;;;;;;;;;;;40.20;21.10;;;;;;4914353;28;75016;-60
2021/06/19 12:46:15;;;;;;;;;;;42.30;19.50;;;;;;4914546;28;74594;-60
2021/06/19 12:48:40;;;;;;;;;;;44.10;18.70;;;;;;4932021;28;75489;-59
2021/06/19 12:51:07;;;;;;;;;;;45.40;17.70;;;;;;4931613;28;75782;-61
2021/06/19 12:53:33;;;;;;;;;;;46.30;17.70;;;;;;4963257;28;77205;-58
2021/06/19 12:56:05;;;;;;;;;;;46.90;16.90;;;;;;4930335;28;77110;-60
2021/06/19 12:58:32;;;;;;;;;;;47.50;16.50;;;;;;4931768;28;75630;-60
2021/06/19 13:00:58;;;;;;;;;;;47.40;17.30;;;;;;4930149;28;77849;-63
2021/06/19 13:03:41;;;;;;;;;;;47.30;16.40;;;;;;4930334;28;77463;-62
2021/06/19 13:06:07;;;;;;;;;;;46.50;16.20;;;;;;4932082;28;76366;-60
2021/06/19 13:08:34;;;;;;;;;;;46.60;17.20;;;;;;4931580;28;74619;-64
2021/06/19 13:11:01;;;;;;;;;;;47.40;16.40;;;;;;4930177;28;77041;-63
2021/06/19 13:13:35;;;;;;;;;;;48.20;15.80;;;;;;4930194;28;75598;-62
2021/06/19 13:16:01;;;;;;;;;;;48.50;15.80;;;;;;4930233;28;77556;-62
2021/06/19 13:18:27;;;;;;;;;;;48.80;15.60;;;;;;4931710;28;74671;-57
2021/06/19 13:21:08;;;;;;;;;;;49.40;15.80;;;;;;4931279;28;75684;-60
2021/06/19 13:23:33;;;;;;;;;;;49.10;14.90;;;;;;4931390;28;75349;-58
2021/06/19 13:26:01;;;;;;;;;;;48.50;14.70;;;;;;4931400;28;75220;-58
2021/06/19 13:28:34;;;;;;;;;;;48.10;16.10;;;;;;4931659;28;74426;-59
2021/06/19 13:31:06;;;;;;;;;;;48.40;15.80;;;;;;4930812;28;75670;-58
2021/06/19 13:33:31;;;;;;;;;;;49.00;15.20;;;;;;4931080;28;74377;-59
2021/06/19 13:35:57;;;;;;;;;;;49.60;14.80;;;;;;4929720;28;75454;-61
2021/06/19 13:38:23;;;;;;;;;;;50.00;15.40;;;;;;4931522;28;74382;-61
2021/06/19 13:40:48;;;;;;;;;;;49.30;15.10;;;;;;4929919;28;74545;-60
2021/06/19 13:43:14;;;;;;;;;;;48.70;14.90;;;;;;4929898;28;75740;-61
2021/06/19 13:45:39;;;;;;;;;;;47.40;15.40;;;;;;4930994;28;75349;-59
2021/06/19 13:48:05;;;;;;;;;;;47.40;15.90;;;;;;4930636;28;74561;-60
2021/06/19 13:50:32;;;;;;;;;;;47.00;15.90;;;;;;4931207;28;75155;-59
2021/06/19 13:53:01;;;;;;;;;;;46.00;15.60;;;;;;4930948;28;75581;-61
2021/06/19 13:55:28;;;;;;;;;;;45.30;16.40;;;;;;4931402;28;74524;-63
2021/06/19 13:57:53;;;;;;;;;;;43.10;17.90;;;;;;4930671;28;76558;-65
2021/06/19 14:00:19;;;;;;;;;;;40.50;19.10;;;;;;4930427;28;75376;-60
2021/06/19 14:02:45;;;;;;;;;;;40.40;19.40;;;;;;4929489;28;75176;-58
2021/06/19 14:05:11;;;;;;;;;;;40.50;19.30;;;;;;4930810;28;75114;-58
2021/06/19 14:07:36;;;;;;;;;;;42.50;18.50;;;;;;4930820;28;75599;-59
2021/06/19 14:10:02;;;;;;;;;;;42.00;18.20;;;;;;4931042;28;74585;-58
2021/06/19 14:12:28;;;;;;;;;;;41.40;18.30;;;;;;4930667;28;75272;-61
2021/06/19 14:14:53;;;;;;;;;;;42.90;18.20;;;;;;4930656;28;74609;-65
2021/06/19 14:17:19;;;;;;;;;;;43.70;17.40;;;;;;4930505;28;74884;-66
2021/06/19 14:19:45;;;;;;;;;;;42.90;17.60;;;;;;4929063;28;75567;-64